Time;durP1;ratioP1;P1;durP2;ratioP2;P2;SDS_P1;SDS_P2;PMS_P1;PMS_P2;Temp;Humidity;BMP_temperature;BMP_pressure;BME280_temperature;BME280_humidity;BME280_pressure;Samples;Min_cycle;Max_cycle;Signal;HPM_P1;HPM_P2
2024/03/12 00:00:15;;;;;;;9.07;4.93;;;;;;;1.83;100.00;96826.75;5080472;28;20040;-62
2024/03/12 00:02:48;;;;;;;9.18;5.20;;;;;;;1.83;100.00;96830.22;5074078;28;20043;-62
2024/03/12 00:05:20;;;;;;;9.45;5.05;;;;;;;1.78;100.00;96830.84;5075225;28;20055;-63
2024/03/12 00:07:49;;;;;;;6.60;4.07;;;;;;;1.78;100.00;96832.69;5066316;28;20036;-63
2024/03/12 00:10:17;;;;;;;9.52;4.65;;;;;;;1.75;100.00;96836.59;5078214;28;20101;-62
2024/03/12 00:12:47;;;;;;;9.70;5.07;;;;;;;1.77;100.00;96833.72;5064095;28;20048;-63
2024/03/12 00:15:17;;;;;;;7.63;4.18;;;;;;;1.73;100.00;96833.31;5063316;28;20040;-62
2024/03/12 00:17:45;;;;;;;7.10;4.28;;;;;;;1.62;100.00;96834.75;5067961;28;20046;-62
2024/03/12 00:20:17;;;;;;;7.18;4.47;;;;;;;1.61;100.00;96841.13;5075786;28;20044;-62
2024/03/12 00:22:47;;;;;;;6.35;4.40;;;;;;;1.50;100.00;96839.91;5077131;28;20040;-64
2024/03/12 00:25:19;;;;;;;7.13;4.40;;;;;;;1.55;100.00;96845.44;5076175;28;20040;-63
2024/03/12 00:27:46;;;;;;;7.28;4.53;;;;;;;1.52;100.00;96839.72;5065693;28;20769;-62
2024/03/12 00:30:14;;;;;;;6.30;4.38;;;;;;;1.50;100.00;96842.59;5081763;28;20584;-63
2024/03/12 00:32:41;;;;;;;8.50;3.80;;;;;;;1.63;100.00;96841.75;5073280;28;20102;-62
2024/03/12 00:35:11;;;;;;;5.75;3.90;;;;;;;1.67;100.00;96842.16;5067637;28;20523;-62
2024/03/12 00:37:38;;;;;;;6.13;3.83;;;;;;;1.71;100.00;96846.06;5071643;28;20055;-63
2024/03/12 00:40:11;;;;;;;6.78;4.20;;;;;;;1.57;100.00;96839.91;5076111;28;20149;-63
2024/03/12 00:42:41;;;;;;;7.72;4.38;;;;;;;1.36;100.00;96846.31;5076136;28;20511;-63
2024/03/12 00:45:11;;;;;;;9.48;4.13;;;;;;;1.28;100.00;96844.66;5076947;28;20140;-63
2024/03/12 00:47:41;;;;;;;6.40;3.95;;;;;;;1.23;100.00;96844.44;5071499;28;20040;-63
2024/03/12 00:50:11;;;;;;;6.85;3.88;;;;;;;1.17;100.00;96849.56;5077492;28;20067;-62
2024/03/12 00:52:38;;;;;;;9.65;3.78;;;;;;;1.11;100.00;96847.72;5073196;28;20045;-62
2024/03/12 00:55:09;;;;;;;6.65;3.60;;;;;;;1.09;100.00;96848.94;5070689;28;20040;-63
2024/03/12 00:57:38;;;;;;;6.80;4.10;;;;;;;1.16;100.00;96853.28;5077754;28;20048;-62
2024/03/12 01:00:25;;;;;;;6.80;4.47;;;;;;;1.16;100.00;96855.09;5081485;28;20039;-62
2024/03/12 01:02:54;;;;;;;5.60;3.45;;;;;;;1.13;100.00;96848.34;5076252;28;20039;-63
2024/03/12 01:05:30;;;;;;;5.70;3.05;;;;;;;1.01;100.00;96852.63;5071714;28;20548;-62
2024/03/12 01:07:59;;;;;;;7.32;3.53;;;;;;;0.96;100.00;96847.09;5071674;28;20033;-63
2024/03/12 01:10:28;;;;;;;6.03;3.38;;;;;;;1.06;100.00;96850.19;5074306;28;20044;-63
2024/03/12 01:12:56;;;;;;;5.63;3.42;;;;;;;1.04;100.00;96858.38;5072119;28;20036;-62
2024/03/12 01:15:24;;;;;;;7.72;3.40;;;;;;;1.02;100.00;96852.44;5074263;28;20051;-63
2024/03/12 01:17:55;;;;;;;5.68;3.63;;;;;;;0.97;100.00;96848.75;5079846;28;20044;-62
2024/03/12 01:20:24;;;;;;;5.43;3.35;;;;;;;0.97;100.00;96848.75;5078008;28;20044;-62
2024/03/12 01:22:53;;;;;;;6.82;3.58;;;;;;;1.09;100.00;96855.09;5078420;28;20044;-63
2024/03/12 01:25:21;;;;;;;5.00;3.40;;;;;;;1.09;100.00;96857.78;5075390;28;20101;-63
2024/03/12 01:27:49;;;;;;;5.60;3.30;;;;;;;1.05;100.00;96851.22;5066692;28;20032;-63
2024/03/12 01:30:20;;;;;;;7.35;3.33;;;;;;;0.98;100.00;96859.19;5079759;28;20042;-62
2024/03/12 01:32:47;;;;;;;6.32;3.58;;;;;;;1.06;100.00;96854.72;5068080;28;20641;-62
2024/03/12 01:35:14;;;;;;;6.57;3.58;;;;;;;1.04;100.00;96854.91;5076674;28;20052;-62
2024/03/12 01:37:43;;;;;;;5.95;3.50;;;;;;;0.96;100.00;96855.91;5076606;28;20048;-61
2024/03/12 01:40:19;;;;;;;5.75;3.20;;;;;;;0.95;100.00;96861.47;5070199;28;20487;-63
2024/03/12 01:42:52;;;;;;;6.70;3.25;;;;;;;1.03;100.00;96862.06;5066289;28;20102;-63
2024/03/12 01:45:24;;;;;;;7.30;3.70;;;;;;;1.09;100.00;96865.78;5075505;28;20048;-62
2024/03/12 01:47:51;;;;;;;;;;;;;;;1.09;100.00;96863.09;5066926;28;20032;-62
2024/03/12 01:50:19;;;;;;;3.95;2.60;;;;;;;0.98;100.00;96861.03;5077934;28;19920;-63
2024/03/12 01:52:47;;;;;;;6.25;3.08;;;;;;;1.09;100.00;96865.78;5065538;28;20165;-62
2024/03/12 01:55:14;;;;;;;5.47;3.50;;;;;;;1.21;100.00;96867.84;5076333;28;20477;-62
2024/03/12 01:57:42;;;;;;;6.35;3.15;;;;;;;1.14;100.00;96873.97;5078492;28;20453;-63
2024/03/12 02:00:10;;;;;;;7.47;3.53;;;;;;;1.03;100.00;96867.41;5081519;28;20123;-63
2024/03/12 02:02:37;;;;;;;6.88;3.50;;;;;;;1.00;100.00;96870.47;5075943;28;20068;-63
2024/03/12 02:05:05;;;;;;;5.97;3.25;;;;;;;1.02;100.00;96873.78;5077632;28;20059;-62
2024/03/12 02:07:34;;;;;;;4.90;3.05;;;;;;;0.92;100.00;96872.53;5078214;28;20072;-63
2024/03/12 02:10:00;;;;;;;5.95;2.88;;;;;;;0.90;100.00;96878.06;5065506;28;20104;-63
2024/03/12 02:12:27;;;;;;;4.95;3.25;;;;;;;0.92;100.00;96878.66;5065779;28;20068;-63
2024/03/12 02:14:53;;;;;;;3.97;2.47;;;;;;;0.81;100.00;96885.41;5080721;28;20040;-64
2024/03/12 02:17:21;;;;;;;5.25;2.80;;;;;;;0.81;100.00;96884.59;5081904;28;20044;-62
2024/03/12 02:19:48;;;;;;;5.07;2.72;;;;;;;0.73;100.00;96886.41;5065692;28;20044;-62
2024/03/12 02:22:14;;;;;;;6.30;3.10;;;;;;;0.80;100.00;96893.63;5080340;28;20104;-63
2024/03/12 02:24:41;;;;;;;4.70;2.90;;;;;;;0.84;100.00;96886.84;5072397;28;20074;-63
2024/03/12 02:27:09;;;;;;;5.50;3.00;;;;;;;0.76;100.00;96882.53;5084973;28;20047;-64
2024/03/12 02:29:35;;;;;;;4.32;2.78;;;;;;;0.90;100.00;96886.06;5062950;28;20044;-62
2024/03/12 02:32:02;;;;;;;4.50;2.83;;;;;;;1.15;100.00;96890.81;5085659;28;20526;-62
2024/03/12 02:34:29;;;;;;;6.00;3.25;;;;;;;1.42;100.00;96893.50;5070931;28;20110;-62
2024/03/12 02:36:56;;;;;;;5.72;3.40;;;;;;;1.32;100.00;96879.75;5085372;28;20042;-62
2024/03/12 02:39:22;;;;;;;6.13;2.50;;;;;;;1.27;100.00;96891.84;5071560;28;20052;-62
2024/03/12 02:41:49;;;;;;;4.78;2.80;;;;;;;1.27;100.00;96891.03;5081092;28;20109;-63
2024/03/12 02:44:16;;;;;;;8.32;3.15;;;;;;;1.23;100.00;96887.94;5068771;28;20041;-62
2024/03/12 02:46:43;;;;;;;3.72;2.50;;;;;;;1.32;100.00;96901.91;5077257;28;20052;-63
2024/03/12 02:49:13;;;;;;;5.10;2.38;;;;;;;1.41;100.00;96899.84;5085125;28;20048;-62
2024/03/12 02:51:40;;;;;;;4.30;2.55;;;;;;;1.42;100.00;96894.31;5075270;28;20037;-64
2024/03/12 02:54:07;;;;;;;6.88;2.88;;;;;;;1.47;100.00;96895.56;5077607;28;20044;-62
2024/03/12 02:56:33;;;;;;;4.40;2.70;;;;;;;1.62;100.00;96898.00;5081008;28;20098;-62
2024/03/12 02:59:00;;;;;;;4.15;2.30;;;;;;;1.73;100.00;96912.59;5078401;28;20036;-62
2024/03/12 03:01:27;;;;;;;4.80;2.65;;;;;;;1.80;100.00;96897.34;5082827;28;20074;-63
2024/03/12 03:03:54;;;;;;;4.32;2.50;;;;;;;1.64;100.00;96903.94;5070844;28;20426;-62
2024/03/12 03:06:20;;;;;;;4.78;2.53;;;;;;;1.63;100.00;96908.50;5070621;28;20054;-62
2024/03/12 03:08:47;;;;;;;6.03;2.38;;;;;;;1.67;100.00;96904.34;5076785;28;20028;-63
2024/03/12 03:11:13;;;;;;;4.30;2.63;;;;;;;1.77;100.00;96911.94;5083218;28;20051;-62
2024/03/12 03:13:40;;;;;;;4.88;2.83;;;;;;;1.65;100.00;96913.59;5081651;28;20067;-62
2024/03/12 03:16:06;;;;;;;4.35;2.30;;;;;;;1.58;100.00;96904.78;5079446;28;20075;-62
2024/03/12 03:18:34;;;;;;;4.95;3.00;;;;;;;1.72;100.00;96917.09;5078198;28;20035;-62
2024/03/12 03:21:02;;;;;;;4.20;2.38;;;;;;;2.00;100.00;96910.69;5083111;28;20044;-63
2024/03/12 03:23:28;;;;;;;6.43;3.10;;;;;;;2.26;100.00;96908.16;5072802;28;20047;-63
2024/03/12 03:25:55;;;;;;;7.65;3.28;;;;;;;2.31;100.00;96911.84;5077698;28;20149;-62
2024/03/12 03:28:21;;;;;;;5.10;2.90;;;;;;;2.40;100.00;96914.31;5080225;28;20188;-63
2024/03/12 03:30:49;;;;;;;4.82;2.85;;;;;;;2.62;100.00;96916.69;5069460;28;20570;-63
2024/03/12 03:33:18;;;;;;;4.07;2.25;;;;;;;2.86;100.00;96915.97;5077506;28;20044;-63
2024/03/12 03:35:45;;;;;;;4.28;2.35;;;;;;;2.96;100.00;96920.84;5076487;28;20036;-63
2024/03/12 03:38:11;;;;;;;4.20;2.05;;;;;;;3.16;100.00;96925.25;5081151;28;20036;-63
2024/03/12 03:40:38;;;;;;;5.65;2.30;;;;;;;3.18;100.00;96915.16;5071344;28;20052;-62
2024/03/12 03:43:04;;;;;;;3.70;1.95;;;;;;;3.22;100.00;96915.53;5070845;28;20048;-63
2024/03/12 03:45:31;;;;;;;4.30;2.45;;;;;;;3.31;100.00;96918.78;5080734;28;20040;-64
2024/03/12 03:47:58;;;;;;;6.10;2.67;;;;;;;3.57;100.00;96922.31;5085456;28;20036;-63
2024/03/12 03:50:24;;;;;;;4.60;2.70;;;;;;;3.61;100.00;96923.50;5082699;28;20491;-63
2024/03/12 03:52:52;;;;;;;5.85;2.65;;;;;;;3.65;100.00;96924.72;5077569;28;20127;-63
2024/03/12 03:55:23;;;;;;;5.18;2.78;;;;;;;3.60;100.00;96935.25;5058483;28;20044;-63
2024/03/12 03:57:50;;;;;;;4.70;2.30;;;;;;;3.69;100.00;96931.25;5077492;28;20090;-63
2024/03/12 04:00:22;;;;;;;6.50;2.60;;;;;;;3.80;100.00;96931.59;5078614;28;20048;-63
2024/03/12 04:02:50;;;;;;;5.47;2.40;;;;;;;3.79;100.00;96946.03;5061357;28;20050;-63
2024/03/12 04:05:18;;;;;;;3.85;2.33;;;;;;;3.76;100.00;96941.94;5077899;28;20074;-64
2024/03/12 04:07:45;;;;;;;4.05;2.33;;;;;;;3.70;100.00;96942.78;5072072;28;20522;-62
2024/03/12 04:10:11;;;;;;;3.72;2.50;;;;;;;3.63;100.00;96951.72;5072677;28;20071;-63
2024/03/12 04:12:42;;;;;;;3.97;2.30;;;;;;;3.73;100.00;96948.53;5071895;28;20401;-63
2024/03/12 04:15:09;;;;;;;4.38;2.55;;;;;;;3.61;100.00;96948.41;5082196;28;20039;-63
2024/03/12 04:17:37;;;;;;;4.57;2.83;;;;;;;3.60;100.00;96951.31;5082823;28;20040;-63
2024/03/12 04:20:11;;;;;;;6.38;2.78;;;;;;;3.63;100.00;96966.94;5068601;28;20047;-63
2024/03/12 04:22:38;;;;;;;5.35;2.60;;;;;;;3.64;100.00;96961.38;5063751;28;20511;-62
2024/03/12 04:25:07;;;;;;;4.00;2.45;;;;;;;3.63;100.00;96975.81;5072846;28;20044;-62
2024/03/12 04:27:37;;;;;;;5.18;2.67;;;;;;;3.83;100.00;96980.16;5078736;28;20059;-62
2024/03/12 04:30:11;;;;;;;5.13;2.50;;;;;;;3.77;100.00;96971.16;5068033;28;20043;-63
2024/03/12 04:32:39;;;;;;;5.32;2.78;;;;;;;3.68;100.00;96980.50;5074171;28;20036;-63
2024/03/12 04:35:09;;;;;;;4.30;2.83;;;;;;;3.71;100.00;96979.22;5080545;28;20048;-62
2024/03/12 04:37:36;;;;;;;6.05;2.78;;;;;;;3.73;100.00;96983.31;5077530;28;20058;-63
2024/03/12 04:40:06;;;;;;;5.60;2.85;;;;;;;3.68;100.00;96990.41;5076643;28;20050;-63
2024/03/12 04:42:34;;;;;;;4.63;2.80;;;;;;;3.62;100.00;97002.78;5069718;28;20048;-62
2024/03/12 04:45:01;;;;;;;6.40;3.10;;;;;;;3.64;100.00;97000.69;5080289;28;20050;-63
2024/03/12 04:47:28;;;;;;;4.40;2.70;;;;;;;3.74;100.00;97005.59;5081030;28;20123;-62
2024/03/12 04:49:54;;;;;;;5.45;3.03;;;;;;;3.83;100.00;97001.59;5069102;28;20114;-62
2024/03/12 04:52:21;;;;;;;7.22;2.85;;;;;;;3.90;100.00;97006.91;5077256;28;20044;-63
2024/03/12 04:54:47;;;;;;;5.22;2.83;;;;;;;4.12;100.00;97012.72;5071558;28;20048;-62
2024/03/12 04:57:14;;;;;;;5.70;3.15;;;;;;;4.19;100.00;97006.47;5084416;28;20051;-63
2024/03/12 04:59:41;;;;;;;5.80;2.70;;;;;;;4.07;100.00;97006.38;5081726;28;20500;-62
2024/03/12 05:02:07;;;;;;;6.35;3.25;;;;;;;3.94;100.00;97007.31;5080426;28;20044;-63
2024/03/12 05:04:34;;;;;;;4.78;2.90;;;;;;;4.05;100.00;97016.50;5069589;28;20558;-63
2024/03/12 05:07:00;;;;;;;5.55;2.95;;;;;;;3.96;100.00;97015.94;5069711;28;20528;-63
2024/03/12 05:09:28;;;;;;;5.70;2.95;;;;;;;3.96;100.00;97023.97;5059215;28;20075;-63
2024/03/12 05:11:54;;;;;;;6.78;3.28;;;;;;;3.93;100.00;97019.88;5077456;28;20040;-63
2024/03/12 05:14:21;;;;;;;5.85;3.28;;;;;;;4.06;100.00;97024.31;5078138;28;20123;-63
2024/03/12 05:16:47;;;;;;;6.97;3.10;;;;;;;4.19;100.00;97020.69;5046491;28;20048;-62
2024/03/12 05:19:14;;;;;;;5.70;2.80;;;;;;;4.24;100.00;97026.22;5075036;28;20040;-63
2024/03/12 05:21:41;;;;;;;5.03;2.85;;;;;;;4.34;100.00;97038.28;5080471;28;20044;-63
2024/03/12 05:24:08;;;;;;;4.95;2.50;;;;;;;4.47;100.00;97040.88;5063833;28;20118;-63
2024/03/12 05:26:43;;;;;;;5.47;3.10;;;;;;;4.44;100.00;97038.63;5072836;28;20568;-63
2024/03/12 05:29:13;;;;;;;4.70;3.08;;;;;;;4.53;100.00;97037.28;5075407;28;20051;-62
2024/03/12 05:31:40;;;;;;;6.22;3.42;;;;;;;4.56;100.00;97041.38;5048821;28;20044;-64
2024/03/12 05:34:17;;;;;;;5.85;3.20;;;;;;;4.53;100.00;97047.19;5060651;28;20048;-63
2024/03/12 05:36:52;;;;;;;4.95;3.00;;;;;;;4.62;100.00;97047.72;5070137;28;20079;-64
2024/03/12 05:39:26;;;;;;;6.30;3.17;;;;;;;4.60;100.00;97057.88;5050724;28;20094;-63
2024/03/12 05:50:16;;;;;;;5.32;3.45;;;;;;;4.58;100.00;97054.56;5060264;28;20048;-64
2024/03/12 05:52:46;;;;;;;5.13;2.90;;;;;;;4.56;100.00;97065.53;5056958;28;20037;-64
2024/03/12 05:55:15;;;;;;;4.15;2.70;;;;;;;4.60;100.00;97066.72;5052047;28;20041;-64
2024/03/12 05:57:45;;;;;;;5.47;2.53;;;;;;;4.55;100.00;97061.22;5063139;28;20041;-64
2024/03/12 06:00:12;;;;;;;5.03;2.72;;;;;;;4.64;100.00;97059.88;5058328;28;20098;-64
2024/03/12 06:02:41;;;;;;;5.55;3.10;;;;;;;4.77;100.00;97074.19;5067384;28;20524;-62
2024/03/12 06:05:14;;;;;;;5.43;3.20;;;;;;;4.75;100.00;97071.72;5072835;28;20044;-64
2024/03/12 06:07:42;;;;;;;5.00;3.15;;;;;;;4.67;100.00;97069.34;5075533;28;20036;-63
2024/03/12 06:10:09;;;;;;;7.20;3.88;;;;;;;4.85;100.00;97065.88;5057953;28;20048;-63
2024/03/12 06:12:36;;;;;;;5.75;3.20;;;;;;;4.92;100.00;97076.53;5060090;28;20040;-63
2024/03/12 06:15:06;;;;;;;5.80;3.22;;;;;;;4.95;100.00;97076.88;5052130;28;20071;-63
2024/03/12 06:17:33;;;;;;;5.05;3.10;;;;;;;4.97;100.00;97082.03;5054946;28;20047;-63
2024/03/12 06:20:00;;;;;;;4.50;2.92;;;;;;;4.93;100.00;97083.53;5061476;28;20043;-64
2024/03/12 06:22:26;;;;;;;5.40;3.28;;;;;;;4.90;100.00;97084.78;5059709;28;20140;-63
2024/03/12 06:24:53;;;;;;;5.03;2.85;;;;;;;4.98;100.00;97089.06;5050799;28;20047;-62
2024/03/12 06:27:21;;;;;;;5.32;2.90;;;;;;;4.93;100.00;97086.19;5059932;28;20040;-64
2024/03/12 06:29:51;;;;;;;5.60;3.10;;;;;;;4.76;100.00;97089.47;5064482;28;20100;-63
2024/03/12 06:32:20;;;;;;;5.57;2.78;;;;;;;4.76;100.00;97091.34;5062521;28;20064;-64
2024/03/12 06:34:48;;;;;;;5.32;2.80;;;;;;;4.79;100.00;97093.59;5057380;28;20106;-62
2024/03/12 06:37:15;;;;;;;6.38;3.30;;;;;;;4.78;100.00;97092.75;5063923;28;20074;-62
2024/03/12 06:39:44;;;;;;;6.07;3.50;;;;;;;4.79;100.00;97101.63;5051049;28;20148;-62
2024/03/12 06:42:12;;;;;;;6.38;3.17;;;;;;;4.86;100.00;97098.88;5067080;28;20049;-64
2024/03/12 06:44:42;;;;;;;6.43;4.13;;;;;;;4.85;100.00;97108.78;5055234;28;20044;-63
2024/03/12 06:47:10;;;;;;;4.72;3.10;;;;;;;4.95;100.00;97109.09;5066246;28;20118;-63
2024/03/12 06:49:38;;;;;;;6.65;3.15;;;;;;;5.04;100.00;97111.47;5055602;28;20067;-63
2024/03/12 06:52:06;;;;;;;5.45;2.92;;;;;;;5.13;100.00;97114.69;5056974;28;20040;-62
2024/03/12 06:54:34;;;;;;;5.10;2.80;;;;;;;5.25;100.00;97110.22;5056932;28;20040;-64
2024/03/12 06:57:04;;;;;;;5.15;2.85;;;;;;;5.15;100.00;97112.59;5061665;28;20565;-63
2024/03/12 06:59:32;;;;;;;4.35;2.78;;;;;;;4.97;100.00;97110.75;5054547;28;20045;-63
2024/03/12 07:02:02;;;;;;;6.18;3.53;;;;;;;4.87;100.00;97116.63;5064366;28;20032;-63
2024/03/12 07:04:43;;;;;;;5.93;3.50;;;;;;;4.96;100.00;97115.28;5065087;28;21113;-63
2024/03/12 07:07:11;;;;;;;7.60;3.70;;;;;;;5.01;100.00;97115.44;5064847;28;20070;-63
2024/03/12 07:09:40;;;;;;;7.03;3.10;;;;;;;5.02;100.00;97119.75;5058970;28;20040;-64
2024/03/12 07:12:08;;;;;;;6.43;3.67;;;;;;;5.06;100.00;97129.00;5059239;28;20463;-63
2024/03/12 07:14:54;;;;;;;6.68;3.40;;;;;;;5.05;100.00;97126.56;5051869;28;20040;-63
2024/03/12 07:17:22;;;;;;;7.20;3.85;;;;;;;5.05;100.00;97135.41;5065852;28;20883;-63
2024/03/12 07:19:49;;;;;;;5.93;3.47;;;;;;;5.12;100.00;97127.28;5053423;28;20043;-63
2024/03/12 07:22:20;;;;;;;6.35;4.20;;;;;;;5.21;100.00;97128.63;5066554;28;20551;-62
2024/03/12 07:24:47;;;;;;;5.05;3.25;;;;;;;5.26;100.00;97133.34;5056158;28;20524;-63
2024/03/12 07:27:14;;;;;;;6.05;3.22;;;;;;;5.39;100.00;97131.56;5063238;28;20174;-62
2024/03/12 07:29:43;;;;;;;5.55;2.95;;;;;;;5.45;100.00;97136.00;5064217;28;20040;-63
2024/03/12 07:32:10;;;;;;;5.88;2.75;;;;;;;5.44;100.00;97137.06;5065478;28;20033;-64
2024/03/12 07:34:39;;;;;;;5.50;2.55;;;;;;;5.54;100.00;97137.38;5063143;28;20447;-55
2024/03/12 07:37:06;;;;;;;6.03;2.67;;;;;;;5.44;100.00;97137.06;5065271;28;20048;-54
2024/03/12 07:39:34;;;;;;;3.75;2.22;;;;;;;5.41;100.00;97142.88;5063921;28;20036;-53
2024/03/12 07:42:09;;;;;;;5.60;2.85;;;;;;;5.32;100.00;97140.53;5059800;28;20575;-52
2024/03/12 07:44:40;;;;;;;6.97;2.78;;;;;;;5.26;100.00;97154.81;5054714;28;20048;-50
2024/03/12 07:47:07;;;;;;;4.72;2.58;;;;;;;5.24;100.00;97143.50;5059952;28;20048;-53
2024/03/12 07:49:36;;;;;;;5.05;2.53;;;;;;;5.29;100.00;97151.69;5067632;28;20036;-54
2024/03/12 07:52:05;;;;;;;6.65;2.47;;;;;;;5.31;100.00;97146.91;5052709;28;20444;-51
2024/03/12 07:54:32;;;;;;;4.45;2.40;;;;;;;5.43;100.00;97154.22;5054987;28;20415;-52
2024/03/12 07:56:59;;;;;;;5.85;2.20;;;;;;;5.51;100.00;97153.09;5040293;28;20058;-49
2024/03/12 07:59:28;;;;;;;4.40;1.67;;;;;;;5.63;100.00;97148.63;5039489;28;20831;-56
2024/03/12 08:01:57;;;;;;;5.43;1.83;;;;;;;5.79;100.00;97151.75;5037574;28;20048;-56
2024/03/12 08:04:27;;;;;;;3.38;1.77;;;;;;;5.86;100.00;97155.97;5038722;28;20678;-56
2024/03/12 08:06:54;;;;;;;3.83;1.95;;;;;;;6.01;100.00;97160.09;5036370;28;21487;-54
2024/03/12 08:09:21;;;;;;;2.65;1.45;;;;;;;6.14;100.00;97169.06;5049985;28;20436;-50
2024/03/12 08:11:48;;;;;;;3.70;1.42;;;;;;;6.07;100.00;97171.84;5042602;28;20131;-60
2024/03/12 08:14:15;;;;;;;3.42;1.55;;;;;;;6.20;100.00;97173.56;5046880;28;20047;-64
2024/03/12 08:16:42;;;;;;;3.13;1.30;;;;;;;6.34;100.00;97166.13;5052799;28;20043;-62
2024/03/12 08:19:12;;;;;;;2.95;1.42;;;;;;;6.04;100.00;97169.66;5045225;28;20067;-66
2024/03/12 08:21:39;;;;;;;3.00;1.30;;;;;;;6.05;100.00;97174.78;5055838;28;20068;-61
2024/03/12 08:24:07;;;;;;;3.67;1.48;;;;;;;5.93;100.00;97182.75;5059726;28;20152;-62
2024/03/12 08:26:34;;;;;;;2.83;1.40;;;;;;;6.02;100.00;97180.59;5065054;28;20097;-64
2024/03/12 08:29:01;;;;;;;5.00;1.50;;;;;;;6.09;100.00;97181.31;5061486;28;20113;-62
2024/03/12 08:31:28;;;;;;;2.08;1.20;;;;;;;5.97;100.00;97180.47;5055674;28;20033;-62
2024/03/12 08:34:15;;;;;;;3.35;1.52;;;;;;;5.91;100.00;97179.50;5046853;28;20047;-61
2024/03/12 08:36:42;;;;;;;2.85;1.35;;;;;;;5.98;100.00;97180.19;5056439;28;20128;-62
2024/03/12 08:39:12;;;;;;;2.78;1.17;;;;;;;5.92;100.00;97182.97;5052577;28;20041;-62
2024/03/12 08:41:39;;;;;;;3.47;1.77;;;;;;;5.90;100.00;97183.19;5046781;28;20495;-62
2024/03/12 08:44:06;;;;;;;2.30;1.20;;;;;;;5.84;100.00;97187.63;5056320;28;20097;-67
2024/03/12 08:46:33;;;;;;;3.47;1.35;;;;;;;6.01;100.00;97189.69;5053789;28;20048;-64
2024/03/12 08:49:00;;;;;;;2.70;1.30;;;;;;;6.18;100.00;97189.06;5056147;28;20036;-62
2024/03/12 08:51:33;;;;;;;2.80;1.35;;;;;;;6.18;100.00;97195.28;5052861;28;20083;-62
2024/03/12 08:54:01;;;;;;;6.60;1.30;;;;;;;6.20;100.00;97190.50;5059369;28;20052;-61
2024/03/12 08:56:31;;;;;;;2.65;1.25;;;;;;;6.43;100.00;97188.13;5054642;28;20062;-61
2024/03/12 08:58:58;;;;;;;4.53;1.40;;;;;;;6.49;100.00;97196.06;5051185;28;20848;-62
2024/03/12 09:01:25;;;;;;;3.20;1.35;;;;;;;6.33;100.00;97194.03;5059160;28;20132;-62
2024/03/12 09:03:54;;;;;;;4.13;1.45;;;;;;;6.66;100.00;97194.63;5063138;28;20051;-62
2024/03/12 09:06:21;;;;;;;4.45;1.92;;;;;;;6.42;100.00;97197.25;5049331;28;20037;-62
2024/03/12 09:08:49;;;;;;;4.80;2.17;;;;;;;6.23;100.00;97192.72;5051406;28;20048;-62
2024/03/12 09:11:20;;;;;;;4.90;2.38;;;;;;;6.35;100.00;97202.72;5054697;28;20041;-61
2024/03/12 09:13:47;;;;;;;8.18;3.13;;;;;;;6.42;100.00;97206.13;5047001;28;20052;-61
2024/03/12 09:16:14;;;;;;;7.30;2.55;;;;;;;6.39;100.00;97201.22;5056181;28;20044;-61
2024/03/12 09:18:42;;;;;;;6.65;3.05;;;;;;;6.58;100.00;97204.66;5063719;28;20064;-60
2024/03/12 09:21:09;;;;;;;6.43;2.70;;;;;;;6.80;100.00;97209.50;5055641;28;20045;-62
2024/03/12 09:23:36;;;;;;;6.43;3.20;;;;;;;6.78;100.00;97206.19;5066955;28;20043;-61
2024/03/12 09:26:18;;;;;;;6.80;2.58;;;;;;;6.64;100.00;97205.59;5064077;28;20047;-61
2024/03/12 09:28:46;;;;;;;8.00;3.60;;;;;;;6.73;100.00;97211.47;5066057;28;20048;-62
2024/03/12 09:31:13;;;;;;;7.63;3.13;;;;;;;7.00;100.00;97219.09;5066190;28;20040;-62
2024/03/12 09:33:40;;;;;;;9.88;3.45;;;;;;;7.04;100.00;97212.19;5063665;28;20094;-62
2024/03/12 09:36:07;;;;;;;9.52;3.80;;;;;;;6.80;100.00;97214.88;5063073;28;20118;-63
2024/03/12 09:38:34;;;;;;;7.72;3.70;;;;;;;6.67;100.00;97225.84;5064045;28;20132;-62
2024/03/12 09:41:05;;;;;;;7.63;3.53;;;;;;;6.53;100.00;97222.53;5047738;28;20041;-62
2024/03/12 09:43:34;;;;;;;7.45;3.42;;;;;;;6.65;100.00;97231.47;5058158;28;20547;-61
2024/03/12 09:46:02;;;;;;;7.25;3.28;;;;;;;6.69;100.00;97229.13;5045864;28;20044;-62
2024/03/12 09:48:30;;;;;;;7.03;2.97;;;;;;;6.77;100.00;97226.09;5062993;28;20044;-61
2024/03/12 09:50:58;;;;;;;10.27;3.53;;;;;;;7.10;100.00;97232.00;5055055;28;20072;-60
2024/03/12 09:53:26;;;;;;;7.57;3.10;;;;;;;7.14;100.00;97233.16;5060289;28;20045;-62
2024/03/12 09:55:53;;;;;;;6.60;3.28;;;;;;;7.01;100.00;97236.91;5068643;28;20133;-61
2024/03/12 09:58:20;;;;;;;7.03;3.35;;;;;;;7.00;100.00;97238.78;5061560;28;20040;-62
2024/03/12 10:00:47;;;;;;;6.47;2.97;;;;;;;7.22;100.00;97240.09;5076606;28;20040;-64
2024/03/12 10:03:17;;;;;;;9.02;3.03;;;;;;;7.19;100.00;97240.56;5051380;28;20041;-62
2024/03/12 10:05:43;;;;;;;7.40;3.17;;;;;;;7.29;100.00;97246.16;5055557;28;20166;-62
2024/03/12 10:08:15;;;;;;;5.78;2.80;;;;;;;7.20;100.00;97243.03;5064085;28;20048;-61
2024/03/12 10:10:46;;;;;;;5.03;2.47;;;;;;;7.34;100.00;97243.59;5054751;28;20120;-61
2024/03/12 10:13:15;;;;;;;5.95;3.03;;;;;;;7.15;100.00;97241.00;5052326;28;20041;-61
2024/03/12 10:15:58;;;;;;;6.47;2.70;;;;;;;7.14;100.00;97244.75;5058566;28;20514;-61
2024/03/12 10:18:27;;;;;;;6.00;2.85;;;;;;;7.16;100.00;97242.66;5051940;28;20049;-65
2024/03/12 10:20:58;;;;;;;5.60;2.13;;;;;;;7.30;100.00;97253.22;5055583;28;20947;-65
2024/03/12 10:23:29;;;;;;;4.45;1.70;;;;;;;7.31;100.00;97256.72;5060382;28;20711;-66
2024/03/12 10:26:07;;;;;;;3.55;1.70;;;;;;;7.31;100.00;97256.72;5053912;28;20167;-60
2024/03/12 10:28:34;;;;;;;3.45;1.40;;;;;;;7.27;100.00;97262.56;5052682;28;20105;-63
2024/03/12 10:31:09;;;;;;;3.78;1.40;;;;;;;7.38;100.00;97263.63;5063631;28;20680;-63
2024/03/12 10:33:44;;;;;;;3.88;1.30;;;;;;;7.33;100.00;97265.41;5058936;28;20815;-63
2024/03/12 10:36:11;;;;;;;4.95;1.60;;;;;;;7.14;100.00;97266.31;5056379;28;20127;-62
2024/03/12 10:38:42;;;;;;;3.10;1.35;;;;;;;7.25;100.00;97267.38;5051219;28;20044;-62
2024/03/12 10:41:19;;;;;;;3.70;1.10;;;;;;;7.17;100.00;97270.41;5058514;28;20047;-64
2024/03/12 10:43:54;;;;;;;4.05;1.65;;;;;;;7.16;100.00;97271.47;5069957;28;20415;-62
2024/03/12 10:46:23;;;;;;;6.32;2.92;;;;;;;7.26;100.00;97269.00;5056896;28;20036;-62
2024/03/12 10:48:50;;;;;;;6.82;2.95;;;;;;;7.05;100.00;97273.09;5051495;28;20549;-62
2024/03/12 10:51:19;;;;;;;7.53;3.25;;;;;;;7.15;100.00;97272.53;5052222;28;20744;-62
2024/03/12 10:53:49;;;;;;;7.43;2.65;;;;;;;7.21;100.00;97273.44;5068228;28;20527;-62
2024/03/12 10:56:19;;;;;;;6.93;3.13;;;;;;;7.12;100.00;97276.47;5062205;28;20078;-61
2024/03/12 10:58:47;;;;;;;6.43;2.40;;;;;;;7.27;100.00;97276.03;5067251;28;20040;-61
2024/03/12 11:01:18;;;;;;;5.38;2.53;;;;;;;7.20;100.00;97274.50;5061099;28;20041;-63
2024/03/12 11:03:45;;;;;;;5.15;2.28;;;;;;;7.22;100.00;97269.72;5060072;28;20415;-60
2024/03/12 11:06:15;;;;;;;4.15;2.00;;;;;;;7.32;100.00;97275.34;5065764;28;20048;-63
2024/03/12 11:08:43;;;;;;;5.65;2.53;;;;;;;7.06;100.00;97279.28;5066614;28;20072;-61
2024/03/12 11:11:10;;;;;;;3.85;1.77;;;;;;;7.01;100.00;97285.38;5062135;28;20048;-63
2024/03/12 11:13:38;;;;;;;5.22;1.80;;;;;;;7.00;100.00;97283.72;5070711;28;20380;-62
2024/03/12 11:16:13;;;;;;;4.78;1.95;;;;;;;6.76;100.00;97289.88;5062737;28;20076;-61
2024/03/12 11:18:40;;;;;;;4.13;1.88;;;;;;;7.02;100.00;97293.22;5060982;28;20048;-63
2024/03/12 11:21:21;;;;;;;4.25;1.73;;;;;;;7.16;100.00;97295.69;5062325;28;20131;-62
2024/03/12 11:23:48;;;;;;;5.43;1.80;;;;;;;6.93;100.00;97294.56;5068996;28;20276;-62
2024/03/12 11:26:15;;;;;;;5.60;2.03;;;;;;;6.72;100.00;97298.63;5062290;28;20545;-61
2024/03/12 11:28:49;;;;;;;4.43;1.70;;;;;;;6.89;100.00;97293.41;5068254;28;20055;-59
2024/03/12 11:31:19;;;;;;;3.63;1.42;;;;;;;6.99;100.00;97300.91;5061573;28;20424;-63
2024/03/12 11:33:54;;;;;;;5.93;2.85;;;;;;;6.97;100.00;97294.97;5041683;28;20055;-61
2024/03/12 11:36:41;;;;;;;6.07;2.92;;;;;;;6.87;100.00;97307.09;5064245;28;20047;-62
2024/03/12 11:39:15;;;;;;;10.10;5.25;;;;;;;6.81;100.00;97304.53;5056670;28;20124;-62
2024/03/12 11:41:57;;;;;;;11.68;5.63;;;;;;;7.16;100.00;97301.88;5068882;28;20040;-61
2024/03/12 11:44:55;;;;;;;12.32;6.00;;;;;;;7.26;100.00;97290.56;5059922;28;20049;-60
2024/03/12 11:47:29;;;;;;;15.95;8.25;;;;;;;7.30;100.00;97301.69;5054996;28;20048;-69
2024/03/12 11:49:56;;;;;;;16.45;7.50;;;;;;;7.17;100.00;97294.63;5047282;28;20147;-64